createdAt,value
2019-06-07T00:00:04.026Z,48.06
2019-06-07T00:01:03.578Z,47.96
2019-06-07T00:02:03.619Z,47.86
2019-06-07T00:03:03.650Z,47.96
2019-06-07T00:04:03.685Z,48.15
2019-06-07T00:05:03.720Z,48.44
2019-06-07T00:06:03.819Z,48.35
2019-06-07T00:07:04.087Z,48.15
2019-06-07T00:08:07.787Z,48.15
2019-06-07T00:09:03.863Z,48.25
2019-06-07T00:10:03.896Z,48.15
2019-06-07T00:11:03.955Z,48.15
2019-06-07T00:12:03.981Z,48.44
2019-06-07T00:13:04.007Z,48.44
2019-06-07T00:14:04.372Z,48.54
2019-06-07T00:15:04.085Z,48.54
2019-06-07T00:16:04.064Z,48.25
2019-06-07T00:17:04.142Z,48.64
2019-06-07T00:18:04.175Z,48.64
2019-06-07T00:19:04.211Z,48.64
2019-06-07T00:20:04.201Z,48.54
2019-06-07T00:21:04.582Z,48.93
2019-06-07T00:22:17.526Z,48.54
2019-06-07T00:23:04.350Z,48.64
2019-06-07T00:24:04.375Z,48.64
2019-06-07T00:25:04.438Z,48.54
2019-06-07T00:26:04.465Z,48.54
2019-06-07T00:27:04.493Z,48.83
2019-06-07T00:28:04.829Z,48.64
2019-06-07T00:29:04.552Z,48.54
2019-06-07T00:30:29.815Z,49.02
2019-06-07T00:31:04.573Z,48.54
2019-06-07T00:32:04.664Z,48.83
2019-06-07T00:33:04.713Z,48.74
2019-06-07T00:34:04.745Z,48.81
2019-06-07T00:35:05.080Z,48.74
2019-06-07T00:36:04.807Z,48.61
2019-06-07T00:37:04.831Z,48.61
2019-06-07T00:38:04.889Z,48.61
2019-06-07T00:39:04.917Z,48.81
2019-06-07T00:40:13.958Z,48.83
2019-06-07T00:41:04.976Z,48.42
2019-06-07T00:42:05.315Z,49.00
2019-06-07T00:43:05.108Z,49.00
2019-06-07T00:44:05.088Z,49.00
2019-06-07T00:45:05.115Z,48.81
2019-06-07T00:46:05.157Z,48.90
2019-06-07T00:47:05.188Z,49.10
2019-06-07T00:48:05.311Z,48.81
2019-06-07T00:49:05.551Z,48.71
2019-06-07T00:50:05.287Z,49.00
2019-06-07T00:51:05.315Z,48.90
2019-06-07T00:52:05.358Z,48.90
2019-06-07T00:53:15.439Z,48.90
2019-06-07T00:54:05.423Z,49.10
2019-06-07T00:55:05.757Z,49.87
2019-06-07T00:56:05.495Z,49.87
2019-06-07T00:57:05.524Z,49.77
2019-06-07T00:58:05.570Z,49.77
2019-06-07T00:59:11.265Z,49.49
2019-06-07T01:00:05.635Z,49.68
2019-06-07T01:01:05.972Z,49.49
2019-06-07T01:02:05.714Z,49.68
2019-06-07T01:03:05.734Z,49.49
2019-06-07T01:04:05.766Z,49.58
2019-06-07T01:05:05.822Z,49.39
2019-06-07T01:06:05.844Z,49.10
2019-06-07T01:07:06.168Z,49.39
2019-06-07T01:08:05.906Z,49.58
2019-06-07T01:09:05.951Z,49.29
2019-06-07T01:10:05.993Z,49.58
2019-06-07T01:11:06.034Z,49.29
2019-06-07T01:12:06.047Z,49.77
2019-06-07T01:13:06.082Z,49.68
2019-06-07T01:14:06.418Z,49.87
2019-06-07T01:15:06.146Z,49.97
2019-06-07T01:16:06.182Z,49.97
2019-06-07T01:17:22.751Z,49.97
2019-06-07T01:18:37.716Z,50.07
2019-06-07T01:19:06.309Z,49.97
2019-06-07T01:20:06.321Z,50.07
2019-06-07T01:21:06.649Z,50.16
2019-06-07T01:22:06.390Z,49.87
2019-06-07T01:23:51.940Z,49.87
2019-06-07T01:24:12.551Z,49.58
2019-06-07T01:25:06.495Z,49.97
2019-06-07T01:26:06.521Z,49.49
2019-06-07T01:27:06.660Z,49.77
2019-06-07T01:28:06.899Z,49.77
2019-06-07T01:29:06.629Z,49.49
2019-06-07T01:30:06.764Z,49.77
2019-06-07T01:31:06.705Z,49.77
2019-06-07T01:32:06.732Z,49.97
2019-06-07T01:33:06.775Z,50.24
2019-06-07T01:34:06.809Z,49.75
2019-06-07T01:35:07.170Z,50.04
2019-06-07T01:36:06.885Z,49.85
2019-06-07T01:37:06.917Z,49.65
2019-06-07T01:38:06.945Z,50.52
2019-06-07T01:39:06.978Z,50.43
2019-06-07T01:40:07.015Z,50.33
2019-06-07T01:41:07.141Z,50.24
2019-06-07T01:42:07.380Z,50.24
2019-06-07T01:43:07.109Z,50.33
2019-06-07T01:44:07.149Z,50.33
2019-06-07T01:45:07.491Z,50.33
2019-06-07T01:46:07.220Z,50.33
2019-06-07T01:47:07.264Z,50.33
2019-06-07T01:48:07.290Z,50.52
2019-06-07T01:49:07.614Z,50.14
2019-06-07T01:50:07.359Z,50.33
2019-06-07T01:51:07.387Z,50.43
2019-06-07T01:52:07.422Z,50.43
2019-06-07T01:53:07.457Z,50.52
2019-06-07T01:54:49.463Z,50.52
2019-06-07T01:55:07.527Z,50.33
2019-06-07T01:56:08.162Z,50.33
2019-06-07T01:57:07.600Z,50.33
2019-06-07T01:58:07.625Z,50.33
2019-06-07T01:59:07.665Z,50.43
2019-06-07T02:00:07.712Z,50.14
2019-06-07T02:01:07.747Z,50.14
2019-06-07T02:02:07.767Z,50.04
2019-06-07T02:03:08.099Z,50.52
2019-06-07T02:04:07.844Z,50.43
2019-06-07T02:05:07.879Z,50.52
2019-06-07T02:06:07.911Z,50.33
2019-06-07T02:07:07.941Z,50.24
2019-06-07T02:08:07.978Z,50.52
2019-06-07T02:09:08.012Z,50.33
2019-06-07T02:10:08.355Z,50.52
2019-06-07T02:11:08.080Z,50.33
2019-06-07T02:12:25.086Z,50.60
2019-06-07T02:13:08.144Z,51.20
2019-06-07T02:14:08.179Z,50.82
2019-06-07T02:15:08.212Z,50.62
2019-06-07T02:16:08.251Z,50.52
2019-06-07T02:17:08.582Z,50.62
2019-06-07T02:18:08.315Z,50.50
2019-06-07T02:19:08.461Z,50.62
2019-06-07T02:20:08.377Z,51.08
2019-06-07T02:21:08.416Z,50.52
2019-06-07T02:22:08.450Z,50.52
2019-06-07T02:23:08.487Z,50.79
2019-06-07T02:24:09.116Z,50.82
2019-06-07T02:26:08.605Z,50.62
2019-06-07T02:27:08.731Z,51.18
2019-06-07T02:28:27.610Z,50.89
2019-06-07T02:29:08.693Z,50.98
2019-06-07T02:31:11.107Z,50.98
2019-06-07T02:32:09.104Z,50.98
2019-06-07T02:33:08.830Z,50.33
2019-06-07T02:34:08.884Z,50.70
2019-06-07T02:35:08.898Z,50.60
2019-06-07T02:36:08.942Z,51.08
2019-06-07T02:37:08.965Z,50.79
2019-06-07T02:38:09.110Z,50.98
2019-06-07T02:39:09.333Z,50.89
2019-06-07T02:40:09.078Z,51.18
2019-06-07T02:41:09.102Z,50.79
2019-06-07T02:42:09.174Z,50.70
2019-06-07T02:43:09.175Z,50.89
2019-06-07T02:44:09.202Z,50.98
2019-06-07T02:45:10.686Z,50.79
2019-06-07T02:46:25.296Z,50.98
2019-06-07T02:48:09.343Z,51.08
2019-06-07T02:50:09.406Z,50.70
2019-06-07T02:51:09.444Z,50.79
2019-06-07T02:52:09.477Z,50.89
2019-06-07T02:53:09.813Z,50.60
2019-06-07T02:54:09.546Z,50.79
2019-06-07T02:55:09.724Z,50.79
2019-06-07T02:56:37.623Z,51.18
2019-06-07T02:59:09.717Z,50.79
2019-06-07T03:00:40.446Z,50.60
2019-06-07T03:01:10.140Z,50.98
2019-06-07T03:02:09.820Z,51.18
2019-06-07T03:03:09.851Z,50.60
2019-06-07T03:04:09.909Z,51.08
2019-06-07T03:05:09.928Z,50.70
2019-06-07T03:06:10.260Z,51.18
2019-06-07T03:07:10.021Z,50.89
2019-06-07T03:08:10.120Z,50.70
2019-06-07T03:09:10.050Z,51.28
2019-06-07T03:10:10.099Z,50.70
2019-06-07T03:11:10.121Z,51.18
2019-06-07T03:13:10.642Z,51.28
2019-06-07T03:14:10.221Z,51.28
2019-06-07T03:15:10.265Z,51.37
2019-06-07T03:16:10.354Z,51.18
2019-06-07T03:17:10.331Z,51.18
2019-06-07T03:18:10.466Z,51.28
2019-06-07T03:20:10.828Z,51.08
2019-06-07T03:21:10.465Z,51.37
2019-06-07T03:22:10.497Z,51.37
2019-06-07T03:23:10.540Z,51.18
2019-06-07T03:24:10.566Z,51.28
2019-06-07T03:25:10.604Z,51.28
2019-06-07T03:26:11.057Z,51.28
2019-06-07T03:27:33.982Z,51.47
2019-06-07T03:28:10.847Z,51.56
2019-06-07T03:30:36.143Z,51.37
2019-06-07T03:31:10.808Z,51.28
2019-06-07T03:32:11.140Z,51.28
2019-06-07T03:33:10.873Z,50.79
2019-06-07T03:34:10.906Z,50.60
2019-06-07T03:35:10.935Z,51.47
2019-06-07T03:36:23.323Z,51.28
2019-06-07T03:37:11.005Z,51.28
2019-06-07T03:38:11.059Z,51.28
2019-06-07T03:39:11.388Z,51.37
2019-06-07T03:40:11.116Z,51.28
2019-06-07T03:41:11.148Z,51.37
2019-06-07T03:42:11.878Z,51.28
2019-06-07T03:43:11.248Z,51.37
2019-06-07T03:44:11.246Z,51.37
2019-06-07T03:45:11.313Z,51.18
2019-06-07T03:46:11.628Z,51.28
2019-06-07T03:47:11.344Z,51.28
2019-06-07T03:48:11.390Z,50.98
2019-06-07T03:50:11.446Z,51.28
2019-06-07T03:51:23.973Z,51.37
2019-06-07T03:52:11.516Z,51.28
2019-06-07T03:53:11.889Z,51.37
2019-06-07T03:54:11.588Z,51.08
2019-06-07T03:55:11.619Z,51.28
2019-06-07T03:56:12.593Z,51.28
2019-06-07T03:57:11.682Z,51.08
2019-06-07T03:59:11.754Z,51.08
2019-06-07T04:00:11.799Z,51.25
2019-06-07T04:01:11.818Z,51.18
2019-06-07T04:02:11.856Z,51.08
2019-06-07T04:03:32.263Z,51.18
2019-06-07T04:04:11.926Z,51.66
2019-06-07T04:05:12.268Z,51.18
2019-06-07T04:06:11.986Z,51.47
2019-06-07T04:07:12.028Z,51.66
2019-06-07T04:08:12.066Z,51.28
2019-06-07T04:09:12.098Z,51.25
2019-06-07T04:10:12.130Z,51.47
2019-06-07T04:11:12.833Z,51.28
2019-06-07T04:12:12.189Z,51.37
2019-06-07T04:13:12.251Z,51.37
2019-06-07T04:14:12.265Z,51.56
2019-06-07T04:15:12.310Z,51.66
2019-06-07T04:16:12.382Z,51.47
2019-06-07T04:18:12.406Z,51.28
2019-06-07T04:19:12.436Z,51.47
2019-06-07T04:20:12.467Z,51.56
2019-06-07T04:21:12.502Z,51.47
2019-06-07T04:22:12.563Z,51.37
2019-06-07T04:23:27.890Z,51.47
2019-06-07T04:24:12.704Z,51.76
2019-06-07T04:25:12.941Z,51.86
2019-06-07T04:26:12.770Z,51.86
2019-06-07T04:27:12.697Z,51.66
2019-06-07T04:28:12.755Z,51.37
2019-06-07T04:30:12.812Z,51.66
2019-06-07T04:31:12.786Z,51.47
2019-06-07T04:32:12.881Z,51.66
2019-06-07T04:34:12.943Z,51.66
2019-06-07T04:35:12.986Z,51.37
2019-06-07T04:36:13.010Z,51.47
2019-06-07T04:37:13.045Z,51.18
2019-06-07T04:38:13.075Z,51.37
2019-06-07T04:39:13.176Z,51.66
2019-06-07T04:40:13.144Z,51.66
2019-06-07T04:42:13.215Z,51.76
2019-06-07T04:43:13.549Z,51.37
2019-06-07T04:44:13.278Z,51.56
2019-06-07T04:45:32.440Z,51.47
2019-06-07T04:46:13.349Z,51.28
2019-06-07T04:47:13.379Z,51.66
2019-06-07T04:48:13.416Z,51.66
2019-06-07T04:49:13.454Z,51.37
2019-06-07T04:50:13.785Z,51.56
2019-06-07T04:51:13.538Z,51.76
2019-06-07T04:52:13.554Z,51.76
2019-06-07T04:53:13.588Z,51.47
2019-06-07T04:56:13.691Z,51.66
2019-06-07T04:57:13.724Z,51.86
2019-06-07T04:58:13.927Z,51.56
2019-06-07T04:59:13.805Z,51.66
2019-06-07T05:00:46.600Z,51.47
2019-06-07T05:01:26.881Z,51.56
2019-06-07T05:02:13.996Z,51.66
2019-06-07T05:03:14.227Z,51.56
2019-06-07T05:04:13.973Z,51.37
2019-06-07T05:05:13.998Z,51.66
2019-06-07T05:06:14.161Z,51.66
2019-06-07T05:07:14.061Z,51.56
2019-06-07T05:09:14.129Z,51.56
2019-06-07T05:10:14.494Z,51.37
2019-06-07T05:11:14.199Z,51.76
2019-06-07T05:13:14.314Z,51.66
2019-06-07T05:14:14.318Z,51.76
2019-06-07T05:15:14.398Z,51.56
2019-06-07T05:16:14.473Z,51.66
2019-06-07T05:17:14.402Z,51.86
2019-06-07T05:19:14.473Z,51.66
2019-06-07T05:20:16.039Z,51.56
2019-06-07T05:21:14.551Z,51.76
2019-06-07T05:22:14.905Z,51.59
2019-06-07T05:24:14.652Z,51.50
2019-06-07T05:25:14.712Z,51.56
2019-06-07T05:26:14.722Z,51.50
2019-06-07T05:27:14.749Z,51.18
2019-06-07T05:28:14.785Z,51.40
2019-06-07T05:29:14.825Z,51.47
2019-06-07T05:30:51.002Z,51.37
2019-06-07T05:31:14.891Z,51.08
2019-06-07T05:32:14.948Z,51.37
2019-06-07T05:33:14.944Z,51.18
2019-06-07T05:34:15.014Z,51.20
2019-06-07T05:35:15.314Z,51.30
2019-06-07T05:36:15.060Z,51.28
2019-06-07T05:37:15.099Z,51.78
2019-06-07T05:39:15.172Z,51.30
2019-06-07T05:40:15.183Z,51.68
2019-06-07T05:41:15.225Z,51.78
2019-06-07T05:42:15.559Z,51.50
2019-06-07T05:43:15.294Z,51.40
2019-06-07T05:44:15.397Z,51.68
2019-06-07T05:45:15.359Z,51.40
2019-06-07T05:46:15.413Z,51.50
2019-06-07T05:47:15.458Z,51.68
2019-06-07T05:48:15.589Z,50.98
2019-06-07T05:49:15.802Z,51.18
2019-06-07T05:50:38.379Z,51.47
2019-06-07T05:51:15.664Z,51.68
2019-06-07T05:52:15.600Z,51.50
2019-06-07T05:53:15.717Z,51.68
2019-06-07T05:54:15.683Z,51.88
2019-06-07T05:55:15.709Z,51.40
2019-06-07T05:56:16.490Z,51.98
2019-06-07T05:57:15.774Z,51.50
2019-06-07T05:58:15.821Z,51.40
2019-06-07T05:59:16.035Z,51.40
2019-06-07T06:00:15.873Z,51.10
2019-06-07T06:01:47.961Z,51.50
2019-06-07T06:02:22.512Z,51.40
2019-06-07T06:03:15.976Z,51.50
2019-06-07T06:04:16.010Z,51.50
2019-06-07T06:05:32.691Z,51.68
2019-06-07T06:06:16.089Z,51.40
2019-06-07T06:07:16.414Z,51.59
2019-06-07T06:08:16.146Z,51.68
2019-06-07T06:09:16.491Z,51.78
2019-06-07T06:10:16.216Z,52.36
2019-06-07T06:11:16.353Z,52.39
2019-06-07T06:13:16.334Z,52.29
2019-06-07T06:14:16.356Z,51.81
2019-06-07T06:15:16.737Z,51.72
2019-06-07T06:16:16.423Z,52.10
2019-06-07T06:17:16.477Z,51.81
2019-06-07T06:18:16.509Z,51.62
2019-06-07T06:19:16.857Z,51.42
2019-06-07T06:21:19.983Z,51.62
2019-06-07T06:22:16.925Z,51.52
2019-06-07T06:23:16.662Z,51.72
2019-06-07T06:24:16.694Z,51.81
2019-06-07T06:25:31.724Z,51.72
2019-06-07T06:26:16.771Z,51.52
2019-06-07T06:28:02.101Z,51.23
2019-06-07T06:28:17.138Z,51.42
2019-06-07T06:29:16.869Z,51.62
2019-06-07T06:30:16.903Z,51.52
2019-06-07T06:31:16.942Z,51.74
2019-06-07T06:32:41.104Z,51.81
2019-06-07T06:33:32.919Z,51.32
2019-06-07T06:34:17.061Z,51.54
2019-06-07T06:36:17.133Z,51.45
2019-06-07T06:37:17.146Z,51.35
2019-06-07T06:38:17.198Z,50.96
2019-06-07T06:39:17.262Z,51.45
2019-06-07T06:40:17.593Z,51.35
2019-06-07T06:41:17.296Z,51.54
2019-06-07T06:42:17.319Z,51.35
2019-06-07T06:43:17.364Z,51.25
2019-06-07T06:44:17.402Z,51.35
2019-06-07T06:45:17.434Z,51.25
2019-06-07T06:46:37.549Z,51.45
2019-06-07T06:47:17.809Z,51.35
2019-06-07T06:48:17.588Z,51.64
2019-06-07T06:49:17.572Z,50.87
2019-06-07T06:50:17.620Z,50.77
2019-06-07T06:51:17.643Z,51.25
2019-06-07T06:52:17.680Z,50.96
2019-06-07T06:53:17.724Z,51.06
2019-06-07T06:54:39.419Z,50.79
2019-06-07T06:55:17.782Z,50.87
2019-06-07T06:56:18.118Z,51.16
2019-06-07T06:58:17.887Z,51.18
2019-06-07T07:00:17.958Z,50.70
2019-06-07T07:01:17.990Z,50.96
2019-06-07T07:02:18.033Z,50.70
2019-06-07T07:03:55.948Z,50.79
2019-06-07T07:04:18.094Z,50.79
2019-06-07T07:05:18.130Z,50.99
2019-06-07T07:06:26.082Z,50.79
2019-06-07T07:07:18.200Z,50.79
2019-06-07T07:08:18.240Z,50.79
2019-06-07T07:09:18.288Z,50.79
2019-06-07T07:10:18.317Z,50.79
2019-06-07T07:11:23.349Z,50.79
2019-06-07T07:12:18.708Z,50.89
2019-06-07T07:13:18.508Z,50.99
2019-06-07T07:14:18.473Z,50.70
2019-06-07T07:15:18.491Z,51.18
2019-06-07T07:16:18.515Z,50.99
2019-06-07T07:17:18.619Z,50.79
2019-06-07T07:18:18.885Z,51.09
2019-06-07T07:19:18.629Z,51.09
2019-06-07T07:20:18.677Z,51.09
2019-06-07T07:21:18.697Z,50.60
2019-06-07T07:22:18.744Z,51.09
2019-06-07T07:23:18.817Z,51.18
2019-06-07T07:24:21.974Z,50.79
2019-06-07T07:25:19.135Z,50.99
2019-06-07T07:26:19.025Z,51.18
2019-06-07T07:27:18.900Z,51.37
2019-06-07T07:28:18.942Z,50.89
2019-06-07T07:29:18.988Z,51.18
2019-06-07T07:31:19.053Z,50.60
2019-06-07T07:32:19.078Z,50.79
2019-06-07T07:33:19.126Z,50.92
2019-06-07T07:34:33.972Z,51.40
2019-06-07T07:35:19.189Z,50.92
2019-06-07T07:36:38.190Z,51.11
2019-06-07T07:37:19.361Z,50.92
2019-06-07T07:38:19.620Z,50.72
2019-06-07T07:39:19.333Z,50.72
2019-06-07T07:40:56.302Z,50.72
2019-06-07T07:41:19.425Z,50.62
2019-06-07T07:42:21.629Z,50.62
2019-06-07T07:43:19.530Z,50.43
2019-06-07T07:44:19.514Z,50.92
2019-06-07T07:45:19.859Z,50.43
2019-06-07T07:46:28.942Z,50.62
2019-06-07T07:47:19.715Z,50.62
2019-06-07T07:49:19.688Z,50.53
2019-06-07T07:50:19.719Z,50.72
2019-06-07T07:51:19.755Z,50.72
2019-06-07T07:52:19.796Z,50.43
2019-06-07T07:53:19.929Z,50.43
2019-06-07T07:54:19.880Z,50.72
2019-06-07T07:55:19.983Z,50.43
2019-06-07T07:56:19.930Z,50.53
2019-06-07T07:57:19.970Z,50.72
2019-06-07T07:58:20.070Z,50.43
2019-06-07T07:59:20.142Z,50.53
2019-06-07T08:00:50.240Z,50.53
2019-06-07T08:01:20.485Z,50.72
2019-06-07T08:02:20.154Z,50.62
2019-06-07T08:03:20.197Z,50.72
2019-06-07T08:04:39.838Z,50.43
2019-06-07T08:05:29.030Z,50.43
2019-06-07T08:06:20.281Z,50.24
2019-06-07T08:07:20.330Z,50.43
2019-06-07T08:08:20.356Z,50.43
2019-06-07T08:09:20.398Z,50.34
2019-06-07T08:10:20.441Z,50.43
2019-06-07T08:11:20.478Z,50.43
2019-06-07T08:12:20.494Z,50.53
2019-06-07T08:13:25.853Z,50.43
2019-06-07T08:14:20.574Z,50.74
2019-06-07T08:15:20.619Z,50.43
2019-06-07T08:16:21.010Z,50.43
2019-06-07T08:17:20.676Z,50.53
2019-06-07T08:18:20.809Z,50.72
2019-06-07T08:19:20.749Z,50.65
2019-06-07T08:20:20.784Z,50.53
2019-06-07T08:21:26.399Z,50.46
2019-06-07T08:22:20.867Z,50.56
2019-06-07T08:23:21.193Z,50.16
2019-06-07T08:24:20.938Z,50.46
2019-06-07T08:25:20.960Z,50.46
2019-06-07T08:26:21.012Z,50.36
2019-06-07T08:27:26.518Z,50.56
2019-06-07T08:28:21.084Z,50.16
2019-06-07T08:29:21.113Z,50.65
2019-06-07T08:30:47.823Z,50.65
2019-06-07T08:31:21.178Z,50.26
2019-06-07T08:33:26.478Z,50.14
2019-06-07T08:36:03.211Z,50.16
2019-06-07T08:36:40.395Z,50.26
2019-06-07T08:37:21.404Z,50.36
2019-06-07T08:38:27.606Z,50.36
2019-06-07T08:39:21.462Z,50.36
2019-06-07T08:40:21.565Z,50.26
2019-06-07T08:41:21.633Z,50.36
2019-06-07T08:42:36.019Z,50.36
2019-06-07T08:43:21.900Z,50.56
2019-06-07T08:44:25.526Z,50.46
2019-06-07T08:45:21.675Z,50.46
2019-06-07T08:46:21.711Z,49.77
2019-06-07T08:47:21.758Z,50.36
2019-06-07T08:48:27.744Z,50.36
2019-06-07T08:49:21.925Z,50.36
2019-06-07T08:51:21.894Z,49.97
2019-06-07T08:52:22.341Z,49.97
2019-06-07T08:53:21.969Z,50.65
2019-06-07T08:54:23.192Z,49.87
2019-06-07T08:55:22.036Z,49.97
2019-06-07T08:56:22.073Z,50.26
2019-06-07T08:57:22.414Z,50.07
2019-06-07T08:58:22.140Z,50.36
2019-06-07T09:01:22.252Z,49.87
2019-06-07T09:02:24.102Z,49.87
2019-06-07T09:03:22.614Z,49.97
2019-06-07T09:04:22.649Z,49.80
2019-06-07T09:05:22.387Z,49.97
2019-06-07T09:07:22.496Z,49.97
2019-06-07T09:08:29.732Z,49.99
2019-06-07T09:09:22.850Z,49.90
2019-06-07T09:10:22.579Z,49.97
2019-06-07T09:11:22.602Z,50.07
2019-06-07T09:12:22.637Z,49.90
2019-06-07T09:13:22.799Z,49.90
2019-06-07T09:14:22.711Z,50.19
2019-06-07T09:15:24.297Z,50.16
2019-06-07T09:16:22.802Z,49.97
2019-06-07T09:17:22.824Z,49.99
2019-06-07T09:18:41.354Z,50.09
2019-06-07T09:19:22.893Z,49.99
2019-06-07T09:20:36.413Z,50.07
2019-06-07T09:21:22.958Z,49.90
2019-06-07T09:22:23.001Z,50.09
2019-06-07T09:23:23.035Z,49.87
2019-06-07T09:25:23.110Z,49.32
2019-06-07T09:26:23.143Z,49.32
2019-06-07T09:27:23.185Z,49.51
2019-06-07T09:28:23.519Z,49.71
2019-06-07T09:29:23.249Z,49.71
2019-06-07T09:30:23.286Z,49.51
2019-06-07T09:31:23.337Z,49.32
2019-06-07T09:32:23.360Z,49.61
2019-06-07T09:33:23.393Z,49.71
2019-06-07T09:34:23.559Z,49.71
2019-06-07T09:35:23.776Z,49.90
2019-06-07T09:36:23.507Z,49.61
2019-06-07T09:38:03.573Z,49.61
2019-06-07T09:38:25.981Z,49.71
2019-06-07T09:39:23.612Z,49.71
2019-06-07T09:40:27.579Z,49.90
2019-06-07T09:41:42.650Z,49.71
2019-06-07T09:42:24.045Z,49.90
2019-06-07T09:44:26.191Z,49.99
2019-06-07T09:45:23.826Z,49.90
2019-06-07T09:46:23.869Z,49.71
2019-06-07T09:49:09.116Z,49.80
2019-06-07T09:49:31.879Z,49.99
2019-06-07T09:50:24.014Z,49.99
2019-06-07T09:51:24.046Z,49.22
2019-06-07T09:52:24.080Z,49.90
2019-06-07T09:53:24.139Z,49.90
2019-06-07T09:55:03.313Z,49.22
2019-06-07T09:55:25.302Z,49.32
2019-06-07T09:56:24.320Z,49.41
2019-06-07T09:57:24.261Z,49.02
2019-06-07T09:58:51.026Z,49.41
2019-06-07T09:59:24.346Z,49.02
2019-06-07T10:00:42.340Z,49.90
2019-06-07T10:01:24.397Z,49.02
2019-06-07T10:02:24.433Z,48.93
2019-06-07T10:03:24.569Z,49.22
2019-06-07T10:04:31.266Z,49.32
2019-06-07T10:05:24.562Z,49.32
2019-06-07T10:06:24.580Z,49.51
2019-06-07T10:07:31.703Z,49.22
2019-06-07T10:09:42.472Z,49.51
2019-06-07T10:10:38.812Z,49.22
2019-06-07T10:11:24.773Z,49.22
2019-06-07T10:12:24.808Z,49.22
2019-06-07T10:13:25.141Z,49.22
2019-06-07T10:14:24.879Z,49.12
2019-06-07T10:15:24.919Z,49.22
2019-06-07T10:16:24.942Z,49.12
2019-06-07T10:18:25.014Z,49.22
2019-06-07T10:19:25.122Z,49.12
2019-06-07T10:20:25.396Z,49.22
2019-06-07T10:21:25.126Z,49.22
2019-06-07T10:22:25.163Z,49.24
2019-06-07T10:23:25.284Z,49.22
2019-06-07T10:24:25.234Z,49.12
2019-06-07T10:25:25.295Z,49.12
2019-06-07T10:26:25.306Z,49.12
2019-06-07T10:27:25.644Z,49.12
2019-06-07T10:28:25.381Z,49.22
2019-06-07T10:29:25.413Z,49.12
2019-06-07T10:30:26.129Z,48.93
2019-06-07T10:31:25.504Z,49.15
2019-06-07T10:33:27.208Z,49.12
2019-06-07T10:34:26.313Z,48.95
2019-06-07T10:35:25.868Z,49.24
2019-06-07T10:36:25.674Z,48.85
2019-06-07T10:38:25.742Z,49.24
2019-06-07T10:39:25.775Z,49.12
2019-06-07T10:40:25.809Z,48.75
2019-06-07T10:41:26.246Z,49.15
2019-06-07T10:42:25.991Z,49.05
2019-06-07T10:43:25.922Z,48.95
2019-06-07T10:44:26.061Z,48.95
2019-06-07T10:45:25.994Z,48.93
2019-06-07T10:46:26.032Z,49.05
2019-06-07T10:47:26.300Z,49.05
2019-06-07T10:48:26.107Z,49.05
2019-06-07T10:49:26.151Z,49.05
2019-06-07T10:50:26.278Z,48.85
2019-06-07T10:51:26.246Z,48.66
2019-06-07T10:52:26.246Z,48.85
2019-06-07T10:53:26.285Z,48.66
2019-06-07T10:54:30.569Z,48.66
2019-06-07T10:55:26.363Z,48.75
2019-06-07T10:59:11.897Z,48.57
2019-06-07T11:00:11.686Z,48.95
2019-06-07T11:01:12.842Z,48.66
2019-06-07T11:02:11.918Z,48.95
2019-06-07T11:03:11.845Z,49.05
2019-06-07T11:04:11.737Z,48.85
2019-06-07T11:05:12.301Z,48.85
2019-06-07T11:06:12.148Z,48.85
2019-06-07T11:07:12.073Z,48.75
2019-06-07T11:08:13.085Z,48.75
2019-06-07T11:09:12.049Z,48.75
2019-06-07T11:10:16.784Z,48.85
2019-06-07T11:11:12.279Z,49.05
2019-06-07T11:12:12.509Z,48.75
2019-06-07T11:13:18.066Z,48.75
2019-06-07T11:14:12.716Z,48.85
2019-06-07T11:15:12.955Z,48.85
2019-06-07T11:17:56.435Z,48.85
2019-06-07T11:18:56.480Z,48.95
2019-06-07T11:19:56.519Z,49.05
2019-06-07T11:20:56.553Z,49.05
2019-06-07T11:21:56.585Z,48.95
2019-06-07T11:22:56.572Z,48.85
2019-06-07T11:23:56.930Z,48.85
2019-06-07T11:24:56.696Z,48.85
2019-06-07T11:25:56.795Z,48.95
2019-06-07T11:27:56.778Z,48.95
2019-06-07T11:28:56.846Z,48.75
2019-06-07T11:29:57.181Z,49.05
2019-06-07T11:30:56.912Z,49.05
2019-06-07T11:31:56.953Z,48.75
2019-06-07T11:32:56.992Z,48.95
2019-06-07T11:33:57.025Z,49.05
2019-06-07T11:34:57.148Z,48.85
2019-06-07T11:35:57.415Z,48.95
2019-06-07T11:36:57.144Z,48.75
2019-06-07T11:38:57.222Z,48.78
2019-06-07T11:39:57.264Z,48.75
2019-06-07T11:40:57.287Z,49.05
2019-06-07T11:42:37.490Z,49.05
2019-06-07T11:44:56.335Z,48.97
2019-06-07T11:44:57.514Z,48.97
2019-06-07T11:45:57.468Z,48.78
2019-06-07T11:46:57.518Z,48.78
2019-06-07T11:47:59.870Z,48.78
2019-06-07T11:49:57.616Z,48.88
2019-06-07T11:50:57.667Z,48.88
2019-06-07T11:51:57.696Z,48.88
2019-06-07T11:52:57.728Z,48.75
2019-06-07T11:53:57.756Z,48.95
2019-06-07T11:54:59.158Z,48.97
2019-06-07T11:55:57.842Z,48.97
2019-06-07T11:56:57.901Z,48.68
2019-06-07T11:57:57.913Z,48.68
2019-06-07T11:58:57.963Z,48.78
2019-06-07T11:59:57.982Z,48.68
2019-06-07T12:00:58.366Z,48.78
2019-06-07T12:01:58.062Z,48.78
2019-06-07T12:02:58.094Z,48.78
2019-06-07T12:03:58.927Z,48.68
2019-06-07T12:05:58.224Z,48.97
2019-06-07T12:06:58.603Z,48.58
2019-06-07T12:07:58.281Z,48.58
2019-06-07T12:08:58.319Z,48.49
2019-06-07T12:10:58.386Z,48.39
2019-06-07T12:11:58.426Z,48.30
2019-06-07T12:12:58.782Z,48.49
2019-06-07T12:13:58.520Z,48.58
2019-06-07T12:14:58.540Z,48.49
2019-06-07T12:15:58.577Z,48.49
2019-06-07T12:17:58.657Z,48.49
2019-06-07T12:18:58.688Z,48.30
2019-06-07T12:19:59.117Z,48.49
2019-06-07T12:20:58.789Z,48.30
2019-06-07T12:21:58.838Z,48.49
2019-06-07T12:22:58.999Z,48.49
2019-06-07T12:23:58.944Z,48.39
2019-06-07T12:24:58.921Z,48.39
2019-06-07T12:25:58.984Z,48.49
2019-06-07T12:26:59.357Z,48.49
2019-06-07T12:27:59.149Z,48.39
2019-06-07T12:28:59.124Z,48.49
2019-06-07T12:29:59.144Z,48.49
2019-06-07T12:30:59.166Z,48.49
2019-06-07T12:31:59.193Z,48.49
2019-06-07T12:32:59.256Z,48.58
2019-06-07T12:34:59.603Z,48.68
2019-06-07T12:35:59.350Z,48.68
2019-06-07T12:36:59.416Z,48.68
2019-06-07T12:37:59.419Z,48.68
2019-06-07T12:38:59.461Z,48.78
2019-06-07T12:39:59.533Z,48.58
2019-06-07T12:40:59.523Z,48.90
2019-06-07T12:41:59.881Z,48.88
2019-06-07T12:42:59.646Z,48.68
2019-06-07T12:43:59.670Z,48.88
2019-06-07T12:44:59.673Z,48.68
2019-06-07T12:45:59.709Z,48.68
2019-06-07T12:46:59.764Z,48.88
2019-06-07T12:47:59.795Z,48.78
2019-06-07T12:49:00.199Z,48.68
2019-06-07T12:49:59.872Z,48.58
2019-06-07T12:50:59.904Z,48.68
2019-06-07T12:51:59.927Z,48.58
2019-06-07T12:53:00.047Z,48.58
2019-06-07T12:54:00.018Z,48.80
2019-06-07T12:55:00.042Z,48.71
2019-06-07T12:56:00.515Z,48.68
2019-06-07T12:57:00.149Z,48.71
2019-06-07T12:58:00.165Z,48.68
2019-06-07T12:59:00.219Z,48.78
2019-06-07T13:00:00.253Z,48.90
2019-06-07T13:01:00.308Z,48.90
2019-06-07T13:02:02.457Z,49.00
2019-06-07T13:03:00.731Z,48.51
2019-06-07T13:04:00.418Z,48.41
2019-06-07T13:05:04.535Z,48.41
2019-06-07T13:06:00.505Z,47.93
2019-06-07T13:07:00.515Z,48.13
2019-06-07T13:08:00.551Z,48.13
2019-06-07T13:09:00.622Z,48.13
2019-06-07T13:10:00.988Z,48.32
2019-06-07T13:11:14.277Z,48.22
2019-06-07T13:12:00.715Z,48.22
2019-06-07T13:13:00.757Z,48.13
2019-06-07T13:14:00.784Z,47.86
2019-06-07T13:15:00.814Z,47.66
2019-06-07T13:16:00.843Z,47.56
2019-06-07T13:17:00.890Z,46.98
2019-06-07T13:18:00.931Z,47.49
2019-06-07T13:19:00.962Z,47.66
2019-06-07T13:20:01.073Z,47.56
2019-06-07T13:21:01.048Z,47.49
2019-06-07T13:22:01.100Z,47.30
2019-06-07T13:23:01.509Z,47.00
2019-06-07T13:24:01.174Z,46.73
2019-06-07T13:25:01.304Z,46.44
2019-06-07T13:26:01.437Z,46.64
2019-06-07T13:27:01.662Z,46.25
2019-06-07T13:28:01.389Z,45.86
2019-06-07T13:29:01.754Z,46.08
2019-06-07T13:30:09.187Z,45.39
2019-06-07T13:31:01.561Z,45.49
2019-06-07T13:32:01.496Z,45.29
2019-06-07T13:33:02.949Z,45.42
2019-06-07T13:34:01.616Z,44.83
2019-06-07T13:35:01.634Z,45.12
2019-06-07T13:36:02.015Z,44.93
2019-06-07T13:37:01.674Z,44.44
2019-06-07T13:38:02.135Z,44.64
2019-06-07T13:39:01.758Z,44.83
2019-06-07T13:40:02.026Z,44.54
2019-06-07T13:42:01.950Z,44.83
2019-06-07T13:43:05.688Z,44.73
2019-06-07T13:44:02.077Z,44.64
2019-06-07T13:46:02.118Z,44.64
2019-06-07T13:47:02.119Z,44.64
2019-06-07T13:48:02.198Z,44.83
2019-06-07T13:49:02.479Z,44.27